Time;durP1;ratioP1;P1;durP2;ratioP2;P2;SDS_P1;SDS_P2;PMS_P1;PMS_P2;Temp;Humidity;BMP_temperature;BMP_pressure;BME280_temperature;BME280_humidity;BME280_pressure;Samples;Min_cycle;Max_cycle;Signal;HPM_P1;HPM_P2
2023/06/09 00:00:17;;;;;;;11.30;5.78;;;;;;;;;;5022947;28;20013;-56
2023/06/09 00:02:44;;;;;;;12.00;6.97;;;;;;;;;;5023037;28;20065;-51
2023/06/09 00:05:11;;;;;;;13.85;7.03;;;;;;;;;;5022884;28;20124;-55
2023/06/09 00:07:36;;;;;;;10.15;5.95;;;;;;;;;;5022685;28;20045;-50
2023/06/09 00:10:02;;;;;;;16.50;6.53;;;;;;;;;;5022692;28;20447;-57
2023/06/09 00:12:27;;;;;;;8.85;7.00;;;;;;;;;;5023034;28;20017;-56
2023/06/09 00:14:53;;;;;;;10.23;6.50;;;;;;;;;;5022500;28;20025;-53
2023/06/09 00:17:19;;;;;;;12.27;7.78;;;;;;;;;;5022092;28;20456;-52
2023/06/09 00:19:46;;;;;;;9.10;6.60;;;;;;;;;;5022497;28;20029;-57
2023/06/09 00:22:13;;;;;;;11.00;6.95;;;;;;;;;;5022382;28;20067;-54
2023/06/09 00:24:39;;;;;;;12.27;6.80;;;;;;;;;;5022672;28;20421;-52
2023/06/09 00:27:06;;;;;;;9.35;6.60;;;;;;;;;;5022546;28;20068;-57
2023/06/09 00:29:31;;;;;;;13.98;6.57;;;;;;;;;;5022421;28;20137;-54
2023/06/09 00:31:56;;;;;;;9.80;6.85;;;;;;;;;;5022715;28;20848;-55
2023/06/09 00:34:22;;;;;;;17.07;7.30;;;;;;;;;;5022395;28;20454;-51
2023/06/09 00:36:47;;;;;;;11.77;6.70;;;;;;;;;;5022703;28;20297;-52
2023/06/09 00:39:12;;;;;;;12.18;7.40;;;;;;;;;;5022081;28;20720;-55
2023/06/09 00:41:38;;;;;;;14.70;7.72;;;;;;;;;;5022683;28;20090;-54
2023/06/09 00:44:04;;;;;;;12.57;7.70;;;;;;;;;;5022487;28;20029;-51
2023/06/09 00:46:29;;;;;;;13.73;7.68;;;;;;;;;;5023751;28;20025;-51
2023/06/09 00:48:54;;;;;;;13.50;7.97;;;;;;;;;;5022261;28;20370;-52
2023/06/09 00:51:19;;;;;;;11.82;7.75;;;;;;;;;;5022154;28;20538;-49
2023/06/09 00:53:45;;;;;;;12.20;7.93;;;;;;;;;;5022135;28;20032;-56
2023/06/09 00:56:12;;;;;;;11.93;7.75;;;;;;;;;;5021750;28;20022;-58
2023/06/09 00:58:37;;;;;;;14.40;8.55;;;;;;;;;;5021787;28;20102;-55
2023/06/09 01:01:02;;;;;;;16.50;8.63;;;;;;;;;;5021632;28;20061;-52
2023/06/09 01:03:28;;;;;;;13.00;7.72;;;;;;;;;;5021813;28;20075;-53
2023/06/09 01:06:02;;;;;;;19.42;9.32;;;;;;;;;;5021608;28;20460;-56
2023/06/09 01:08:36;;;;;;;18.15;8.68;;;;;;;;;;5021610;28;20108;-53
2023/06/09 01:11:12;;;;;;;10.05;7.03;;;;;;;;;;5019131;28;20073;-56
2023/06/09 01:13:43;;;;;;;10.35;6.75;;;;;;;;;;5021843;28;20021;-55
2023/06/09 01:16:11;;;;;;;14.43;7.13;;;;;;;;;;5021987;28;20029;-51
2023/06/09 01:18:42;;;;;;;10.10;7.20;;;;;;;;;;5021994;28;20182;-57
2023/06/09 01:21:12;;;;;;;13.45;7.55;;;;;;;;;;5021839;28;20036;-54
2023/06/09 01:23:47;;;;;;;12.10;7.43;;;;;;;;;;5018683;28;20134;-58
2023/06/09 01:26:14;;;;;;;22.20;7.85;;;;;;;;;;5021692;28;20025;-54
2023/06/09 01:28:40;;;;;;;15.40;8.10;;;;;;;;;;5024932;28;20102;-53
2023/06/09 01:31:08;;;;;;;16.55;8.23;;;;;;;;;;5027081;28;20516;-52
2023/06/09 01:33:34;;;;;;;11.60;7.80;;;;;;;;;;5027011;28;20021;-53
2023/06/09 01:36:00;;;;;;;11.60;7.68;;;;;;;;;;5026825;28;20056;-52
2023/06/09 01:38:25;;;;;;;12.48;7.30;;;;;;;;;;5026600;28;20301;-55
2023/06/09 01:40:51;;;;;;;12.60;7.97;;;;;;;;;;5026844;28;20022;-52
2023/06/09 01:43:16;;;;;;;13.30;7.07;;;;;;;;;;5025706;28;20358;-56
2023/06/09 01:45:42;;;;;;;9.93;7.28;;;;;;;;;;5024903;28;20024;-53
2023/06/09 01:48:26;;;;;;;12.00;8.82;;;;;;;;;;5025686;28;20113;-57
2023/06/09 01:50:56;;;;;;;16.13;8.20;;;;;;;;;;5025469;28;20056;-53
2023/06/09 01:53:34;;;;;;;10.00;7.85;;;;;;;;;;5023246;28;20028;-52
2023/06/09 01:56:07;;;;;;;9.38;8.10;;;;;;;;;;5022679;28;20025;-51
2023/06/09 01:58:36;;;;;;;12.68;9.10;;;;;;;;;;5023127;28;20036;-52
2023/06/09 02:01:02;;;;;;;17.10;8.67;;;;;;;;;;5021905;28;20100;-53
2023/06/09 02:03:29;;;;;;;11.85;9.20;;;;;;;;;;5021701;28;20331;-51
2023/06/09 02:05:55;;;;;;;11.25;8.48;;;;;;;;;;5021811;28;20111;-55
2023/06/09 02:08:21;;;;;;;12.40;9.50;;;;;;;;;;5021641;28;20192;-54
2023/06/09 02:10:47;;;;;;;14.30;10.20;;;;;;;;;;5021206;28;20129;-55
2023/06/09 02:13:16;;;;;;;16.50;10.88;;;;;;;;;;5021512;28;20500;-53
2023/06/09 02:15:42;;;;;;;16.00;10.73;;;;;;;;;;5021593;28;20044;-55
2023/06/09 02:18:10;;;;;;;14.05;11.13;;;;;;;;;;5021462;28;20053;-54
2023/06/09 02:20:35;;;;;;;17.48;11.68;;;;;;;;;;5021499;28;20025;-53
2023/06/09 02:23:00;;;;;;;21.88;11.68;;;;;;;;;;5022135;28;20527;-54
2023/06/09 02:25:28;;;;;;;18.10;11.70;;;;;;;;;;5025567;28;20025;-57
2023/06/09 02:27:53;;;;;;;14.75;11.07;;;;;;;;;;5025715;28;20033;-57
2023/06/09 02:30:18;;;;;;;14.93;11.60;;;;;;;;;;5021559;28;20509;-55
2023/06/09 02:32:44;;;;;;;17.98;11.88;;;;;;;;;;5022256;28;20069;-53
2023/06/09 02:35:09;;;;;;;17.88;12.30;;;;;;;;;;5022509;28;20083;-52
2023/06/09 02:37:35;;;;;;;18.53;11.70;;;;;;;;;;5021372;28;20121;-56
2023/06/09 02:40:00;;;;;;;16.83;11.43;;;;;;;;;;5023575;28;20651;-54
2023/06/09 02:42:26;;;;;;;15.93;11.27;;;;;;;;;;5022902;28;20462;-51
2023/06/09 02:44:51;;;;;;;14.80;12.27;;;;;;;;;;5024703;28;20498;-58
2023/06/09 02:47:16;;;;;;;14.93;10.50;;;;;;;;;;5024003;28;20022;-57
2023/06/09 02:49:41;;;;;;;14.98;11.68;;;;;;;;;;5024111;28;20395;-55
2023/06/09 02:52:07;;;;;;;19.45;12.77;;;;;;;;;;5023989;28;20032;-52
2023/06/09 02:54:32;;;;;;;16.85;10.75;;;;;;;;;;5023864;28;20264;-54
2023/06/09 02:56:59;;;;;;;18.15;12.38;;;;;;;;;;5024003;28;20440;-56
2023/06/09 02:59:24;;;;;;;17.27;11.48;;;;;;;;;;5023827;28;20083;-53
2023/06/09 03:01:50;;;;;;;18.55;12.10;;;;;;;;;;5024382;28;20025;-54
2023/06/09 03:04:17;;;;;;;15.77;11.98;;;;;;;;;;5024036;28;20104;-55
2023/06/09 03:06:43;;;;;;;15.32;11.18;;;;;;;;;;5023007;28;20030;-55
2023/06/09 03:09:10;;;;;;;19.00;12.70;;;;;;;;;;5023787;28;20029;-55
2023/06/09 03:11:36;;;;;;;14.93;11.90;;;;;;;;;;5037931;28;20029;-55
2023/06/09 03:14:01;;;;;;;19.25;12.00;;;;;;;;;;5024468;28;20036;-51
2023/06/09 03:16:27;;;;;;;17.73;12.73;;;;;;;;;;5024108;28;20028;-53
2023/06/09 03:18:53;;;;;;;21.80;13.80;;;;;;;;;;5037794;28;20037;-54
2023/06/09 03:21:18;;;;;;;17.40;12.70;;;;;;;;;;5023683;28;20030;-53
2023/06/09 03:23:43;;;;;;;20.65;14.23;;;;;;;;;;5023473;28;20053;-55
2023/06/09 03:26:09;;;;;;;19.92;12.82;;;;;;;;;;5023727;28;20725;-57
2023/06/09 03:28:34;;;;;;;26.88;14.27;;;;;;;;;;5023979;28;20836;-56
2023/06/09 03:30:59;;;;;;;20.23;13.68;;;;;;;;;;5023471;28;20025;-55
2023/06/09 03:33:25;;;;;;;24.65;14.05;;;;;;;;;;5023980;28;20036;-54
2023/06/09 03:35:50;;;;;;;31.13;14.00;;;;;;;;;;5023407;28;20092;-57
2023/06/09 03:38:16;;;;;;;25.70;14.35;;;;;;;;;;5037529;28;21002;-58
2023/06/09 03:40:41;;;;;;;21.15;14.60;;;;;;;;;;5023253;28;20029;-56
2023/06/09 03:43:07;;;;;;;16.73;13.00;;;;;;;;;;5023498;28;20075;-55
2023/06/09 03:45:34;;;;;;;18.98;11.98;;;;;;;;;;5023557;28;20349;-56
2023/06/09 03:47:59;;;;;;;14.48;11.68;;;;;;;;;;5023145;28;20033;-57
2023/06/09 03:50:24;;;;;;;21.60;12.35;;;;;;;;;;5023158;28;20563;-56
2023/06/09 03:52:50;;;;;;;15.90;12.40;;;;;;;;;;5023218;28;20033;-55
2023/06/09 03:55:20;;;;;;;18.60;11.45;;;;;;;;;;5023000;28;20022;-55
2023/06/09 03:57:45;;;;;;;16.40;11.38;;;;;;;;;;5022607;28;20135;-56
2023/06/09 04:00:11;;;;;;;15.27;10.63;;;;;;;;;;5022587;28;20116;-56
2023/06/09 04:02:37;;;;;;;14.95;10.63;;;;;;;;;;5036809;28;20388;-56
2023/06/09 04:05:02;;;;;;;12.82;10.57;;;;;;;;;;5023043;28;20025;-50
2023/06/09 04:07:29;;;;;;;17.33;11.40;;;;;;;;;;5022759;28;20044;-50
2023/06/09 04:09:55;;;;;;;15.68;11.48;;;;;;;;;;5022462;28;20268;-54
2023/06/09 04:12:20;;;;;;;17.58;11.75;;;;;;;;;;5022799;28;20319;-54
2023/06/09 04:14:45;;;;;;;15.73;11.80;;;;;;;;;;5022741;28;20037;-53
2023/06/09 04:17:11;;;;;;;17.52;11.68;;;;;;;;;;5022496;28;20247;-50
2023/06/09 04:19:36;;;;;;;18.23;11.63;;;;;;;;;;5022267;28;20030;-54
2023/06/09 04:22:05;;;;;;;17.83;11.60;;;;;;;;;;5022432;28;20109;-51
2023/06/09 04:24:30;;;;;;;18.60;10.60;;;;;;;;;;5022208;28;20075;-56
2023/06/09 04:26:57;;;;;;;19.05;10.52;;;;;;;;;;5022194;28;20474;-51
2023/06/09 04:29:23;;;;;;;18.73;10.77;;;;;;;;;;5022032;28;20035;-55
2023/06/09 04:31:53;;;;;;;19.40;10.52;;;;;;;;;;5022227;28;20025;-55
2023/06/09 04:34:18;;;;;;;20.45;10.63;;;;;;;;;;5022213;28;20108;-54
2023/06/09 04:36:45;;;;;;;15.05;9.45;;;;;;;;;;5022463;28;20109;-54
2023/06/09 04:39:11;;;;;;;16.48;9.98;;;;;;;;;;5022430;28;20033;-55
2023/06/09 04:41:37;;;;;;;16.10;9.50;;;;;;;;;;5022577;28;20109;-57
2023/06/09 04:44:05;;;;;;;15.20;8.75;;;;;;;;;;5022045;28;20036;-52
2023/06/09 04:46:37;;;;;;;16.67;8.45;;;;;;;;;;5021972;28;20029;-50
2023/06/09 04:49:08;;;;;;;14.77;8.48;;;;;;;;;;5021939;28;20036;-55
2023/06/09 04:51:41;;;;;;;15.43;9.55;;;;;;;;;;5021902;28;20044;-56
2023/06/09 04:54:07;;;;;;;17.23;9.60;;;;;;;;;;5021865;28;20017;-53
2023/06/09 04:56:32;;;;;;;11.57;8.02;;;;;;;;;;5021973;28;20108;-57
2023/06/09 04:58:58;;;;;;;15.15;9.02;;;;;;;;;;5021709;28;20408;-55
2023/06/09 05:01:23;;;;;;;19.88;10.02;;;;;;;;;;5021342;28;20085;-53
2023/06/09 05:03:48;;;;;;;15.32;9.35;;;;;;;;;;5020539;28;20068;-58
2023/06/09 05:06:14;;;;;;;18.45;10.85;;;;;;;;;;5022083;28;20402;-58
2023/06/09 05:08:39;;;;;;;15.35;9.50;;;;;;;;;;5021716;28;20067;-55
2023/06/09 05:11:05;;;;;;;22.55;10.82;;;;;;;;;;5021812;28;20036;-57
2023/06/09 05:13:30;;;;;;;14.85;9.48;;;;;;;;;;5022089;28;20018;-57
2023/06/09 05:15:57;;;;;;;14.75;9.40;;;;;;;;;;5021577;28;20026;-57
2023/06/09 05:18:22;;;;;;;17.60;9.65;;;;;;;;;;5021533;28;20106;-57
2023/06/09 05:20:47;;;;;;;15.90;10.18;;;;;;;;;;5021485;28;20025;-52
2023/06/09 05:23:13;;;;;;;18.83;10.15;;;;;;;;;;5035649;28;20056;-53
2023/06/09 05:25:38;;;;;;;16.50;10.57;;;;;;;;;;5021659;28;20021;-56
2023/06/09 05:28:03;;;;;;;36.90;11.83;;;;;;;;;;5021463;28;20026;-56
2023/06/09 05:30:28;;;;;;;16.92;10.45;;;;;;;;;;5021190;28;20358;-55
2023/06/09 05:32:54;;;;;;;16.63;10.05;;;;;;;;;;5021587;28;20049;-52
2023/06/09 05:35:19;;;;;;;20.08;10.52;;;;;;;;;;5021790;28;20489;-55
2023/06/09 05:37:51;;;;;;;17.38;11.75;;;;;;;;;;5021708;28;20068;-51
2023/06/09 05:40:16;;;;;;;18.00;10.75;;;;;;;;;;5021638;28;20057;-56
2023/06/09 05:42:41;;;;;;;19.95;10.52;;;;;;;;;;5021599;28;20540;-55
2023/06/09 05:45:07;;;;;;;15.27;11.00;;;;;;;;;;5020888;28;20477;-53
2023/06/09 05:47:33;;;;;;;17.80;11.15;;;;;;;;;;5020546;28;20781;-54
2023/06/09 05:49:59;;;;;;;20.15;10.07;;;;;;;;;;5002493;28;20117;-55
2023/06/09 05:52:24;;;;;;;27.50;14.63;;;;;;;;;;5021930;28;20481;-56
2023/06/09 05:54:49;;;;;;;18.70;10.85;;;;;;;;;;5021447;28;20018;-53
2023/06/09 05:57:15;;;;;;;17.38;11.98;;;;;;;;;;5019983;28;20417;-55
2023/06/09 05:59:41;;;;;;;17.52;11.60;;;;;;;;;;5021083;28;20057;-54
2023/06/09 06:02:06;;;;;;;16.38;11.38;;;;;;;;;;5021398;28;20496;-57
2023/06/09 06:04:31;;;;;;;15.35;11.15;;;;;;;;;;5021148;28;20082;-55
2023/06/09 06:06:57;;;;;;;14.25;10.93;;;;;;;;;;5006489;28;20029;-54
2023/06/09 06:09:22;;;;;;;17.05;11.10;;;;;;;;;;5014253;28;20385;-55
2023/06/09 06:11:48;;;;;;;17.77;11.33;;;;;;;;;;5018456;28;20029;-54
2023/06/09 06:14:13;;;;;;;19.20;11.63;;;;;;;;;;5019289;28;20263;-58
2023/06/09 06:16:39;;;;;;;19.77;11.55;;;;;;;;;;5021193;28;20086;-53
2023/06/09 06:19:04;;;;;;;18.77;12.13;;;;;;;;;;5026358;28;20117;-55
2023/06/09 06:21:29;;;;;;;16.55;12.45;;;;;;;;;;5024417;28;20469;-50
2023/06/09 06:23:55;;;;;;;23.48;13.02;;;;;;;;;;5013696;28;20113;-53
2023/06/09 06:26:20;;;;;;;17.80;12.73;;;;;;;;;;5016075;28;20037;-51
2023/06/09 06:28:46;;;;;;;18.60;13.02;;;;;;;;;;5019527;28;20041;-52
2023/06/09 06:31:11;;;;;;;22.45;12.48;;;;;;;;;;5013581;28;20037;-57
2023/06/09 06:33:36;;;;;;;21.35;12.70;;;;;;;;;;5021235;28;20028;-54
2023/06/09 06:36:02;;;;;;;24.25;13.65;;;;;;;;;;5018320;28;20660;-49
2023/06/09 06:38:27;;;;;;;24.20;13.63;;;;;;;;;;5014989;28;20030;-55
2023/06/09 06:40:52;;;;;;;21.77;13.95;;;;;;;;;;5009906;28;20113;-52
2023/06/09 06:43:18;;;;;;;23.23;14.30;;;;;;;;;;5030982;28;20111;-53
2023/06/09 06:45:43;;;;;;;24.75;13.10;;;;;;;;;;5010499;28;20108;-54
2023/06/09 06:48:08;;;;;;;21.17;13.45;;;;;;;;;;5024351;28;20125;-52
2023/06/09 06:50:33;;;;;;;22.35;12.50;;;;;;;;;;5003131;28;20393;-51
2023/06/09 06:53:00;;;;;;;18.10;12.23;;;;;;;;;;5006906;28;20480;-51
2023/06/09 06:55:25;;;;;;;20.13;11.82;;;;;;;;;;5016641;28;20247;-49
2023/06/09 06:57:50;;;;;;;18.23;12.15;;;;;;;;;;5013483;28;20028;-56
2023/06/09 07:00:16;;;;;;;19.85;12.02;;;;;;;;;;5013106;28;20033;-48
2023/06/09 07:02:47;;;;;;;19.15;11.98;;;;;;;;;;5015339;28;20124;-48
2023/06/09 07:05:12;;;;;;;16.10;11.48;;;;;;;;;;5012664;28;20661;-49
2023/06/09 07:07:38;;;;;;;24.58;11.60;;;;;;;;;;5016861;28;20103;-49
2023/06/09 07:10:04;;;;;;;15.77;11.85;;;;;;;;;;5016541;28;20140;-49
2023/06/09 07:12:29;;;;;;;18.23;11.73;;;;;;;;;;5018903;28;20080;-56
2023/06/09 07:14:56;;;;;;;16.83;11.93;;;;;;;;;;5024196;28;20090;-54
2023/06/09 07:17:21;;;;;;;18.15;11.02;;;;;;;;;;5012733;28;20065;-55
2023/06/09 07:19:46;;;;;;;15.75;11.32;;;;;;;;;;5007605;28;20068;-48
2023/06/09 07:22:12;;;;;;;16.83;11.30;;;;;;;;;;5007086;28;20022;-51
2023/06/09 07:24:37;;;;;;;16.50;11.10;;;;;;;;;;5022341;28;20288;-53
2023/06/09 07:27:02;;;;;;;16.55;10.93;;;;;;;;;;5017253;28;20103;-53
2023/06/09 07:29:28;;;;;;;14.90;10.93;;;;;;;;;;5016214;28;20079;-56
2023/06/09 07:31:53;;;;;;;16.48;12.35;;;;;;;;;;5010310;28;20064;-53
2023/06/09 07:34:18;;;;;;;17.58;12.65;;;;;;;;;;5007799;28;20929;-56
2023/06/09 07:36:44;;;;;;;20.40;13.38;;;;;;;;;;5005187;28;20087;-49
2023/06/09 07:39:10;;;;;;;31.15;13.77;;;;;;;;;;5017191;28;20021;-49
2023/06/09 07:41:35;;;;;;;17.50;12.05;;;;;;;;;;5024610;28;20083;-48
2023/06/09 07:44:00;;;;;;;13.52;9.55;;;;;;;;;;5005313;28;20708;-56
2023/06/09 07:46:26;;;;;;;15.13;10.55;;;;;;;;;;5016235;28;20760;-51
2023/06/09 07:48:51;;;;;;;15.80;10.50;;;;;;;;;;5011182;28;20033;-51
2023/06/09 07:51:16;;;;;;;13.35;10.05;;;;;;;;;;5015588;28;20036;-56
2023/06/09 07:53:46;;;;;;;11.45;9.48;;;;;;;;;;5014961;28;20028;-53
2023/06/09 07:56:11;;;;;;;14.63;10.43;;;;;;;;;;5020922;28;20525;-54
2023/06/09 07:58:37;;;;;;;14.32;9.57;;;;;;;;;;5013700;28;20110;-55
2023/06/09 08:01:02;;;;;;;14.00;9.80;;;;;;;;;;5013906;28;20517;-50
2023/06/09 08:03:34;;;;;;;13.00;9.50;;;;;;;;;;5006890;28;20080;-55
2023/06/09 08:06:00;;;;;;;14.82;10.70;;;;;;;;;;5029466;28;20025;-56
2023/06/09 08:08:26;;;;;;;12.80;9.60;;;;;;;;;;5007781;28;20414;-56
2023/06/09 08:10:51;;;;;;;15.90;10.63;;;;;;;;;;5014364;28;20517;-56
2023/06/09 08:13:17;;;;;;;12.77;10.30;;;;;;;;;;5008109;28;20029;-51
2023/06/09 08:15:44;;;;;;;15.98;11.25;;;;;;;;;;5031993;28;20021;-56
2023/06/09 08:18:09;;;;;;;22.88;11.00;;;;;;;;;;5011580;28;20030;-51
2023/06/09 08:20:34;;;;;;;16.50;11.90;;;;;;;;;;5014439;28;20021;-53
2023/06/09 08:22:59;;;;;;;17.80;11.13;;;;;;;;;;5015214;28;20046;-54
2023/06/09 08:25:25;;;;;;;11.40;10.00;;;;;;;;;;5007325;28;20104;-51
2023/06/09 08:27:50;;;;;;;14.25;10.15;;;;;;;;;;5014371;28;20044;-55
2023/06/09 08:30:15;;;;;;;14.13;9.67;;;;;;;;;;5013010;28;20033;-52
2023/06/09 08:32:41;;;;;;;14.00;11.60;;;;;;;;;;5016960;28;20926;-52
2023/06/09 08:35:08;;;;;;;15.02;12.00;;;;;;;;;;5017759;28;20049;-49
2023/06/09 08:37:35;;;;;;;14.43;11.48;;;;;;;;;;5015258;28;20021;-48
2023/06/09 08:40:03;;;;;;;17.42;11.60;;;;;;;;;;5010978;28;20724;-55
2023/06/09 08:42:30;;;;;;;17.08;10.95;;;;;;;;;;5014048;28;20025;-54
2023/06/09 08:45:00;;;;;;;11.43;9.75;;;;;;;;;;5020111;28;20030;-49
2023/06/09 08:47:26;;;;;;;13.60;9.45;;;;;;;;;;5019892;28;20026;-51
2023/06/09 08:49:57;;;;;;;16.25;10.18;;;;;;;;;;5012791;28;20564;-48
2023/06/09 08:52:22;;;;;;;14.63;10.18;;;;;;;;;;5017988;28;20067;-48
2023/06/09 08:54:48;;;;;;;14.95;10.02;;;;;;;;;;5016321;28;20414;-49
2023/06/09 08:57:13;;;;;;;13.75;10.20;;;;;;;;;;5026561;28;20025;-51
2023/06/09 08:59:39;;;;;;;13.05;10.20;;;;;;;;;;5028585;28;20029;-48
2023/06/09 09:02:06;;;;;;;14.57;9.45;;;;;;;;;;5017183;28;20544;-49
2023/06/09 09:04:31;;;;;;;13.00;9.70;;;;;;;;;;5023097;28;20112;-51
2023/06/09 09:06:57;;;;;;;13.80;9.68;;;;;;;;;;5022712;28;20123;-54
2023/06/09 09:09:22;;;;;;;13.65;10.55;;;;;;;;;;5021876;28;20021;-55
2023/06/09 09:11:50;;;;;;;18.98;10.43;;;;;;;;;;5021361;28;20458;-56
2023/06/09 09:14:16;;;;;;;20.40;9.57;;;;;;;;;;5032877;28;20112;-52
2023/06/09 09:16:41;;;;;;;13.27;8.40;;;;;;;;;;5021599;28;20358;-52
2023/06/09 09:19:06;;;;;;;12.88;9.27;;;;;;;;;;5021109;28;20235;-50
2023/06/09 09:21:33;;;;;;;13.07;8.87;;;;;;;;;;5021137;28;20040;-56
2023/06/09 09:24:01;;;;;;;11.93;9.23;;;;;;;;;;5021178;28;20344;-51
2023/06/09 09:26:30;;;;;;;9.95;8.27;;;;;;;;;;5021295;28;20745;-55
2023/06/09 09:29:00;;;;;;;12.25;8.98;;;;;;;;;;5021154;28;20033;-54
2023/06/09 09:31:36;;;;;;;15.60;9.75;;;;;;;;;;5034886;28;20029;-50
2023/06/09 09:34:01;;;;;;;11.75;9.13;;;;;;;;;;5038979;28;20037;-53
2023/06/09 09:36:27;;;;;;;15.00;9.57;;;;;;;;;;5036999;28;20021;-53
2023/06/09 09:38:54;;;;;;;12.60;9.32;;;;;;;;;;5041297;28;20052;-56
2023/06/09 09:41:19;;;;;;;17.35;8.98;;;;;;;;;;5041518;28;20036;-53
2023/06/09 09:43:45;;;;;;;12.27;8.27;;;;;;;;;;5041249;28;20039;-54
2023/06/09 09:46:10;;;;;;;12.68;8.77;;;;;;;;;;5023200;28;20720;-56
2023/06/09 09:48:39;;;;;;;8.65;7.30;;;;;;;;;;5014899;28;20114;-57
2023/06/09 09:51:05;;;;;;;12.48;8.55;;;;;;;;;;5032993;28;20406;-54
2023/06/09 09:53:30;;;;;;;11.98;8.48;;;;;;;;;;5044989;28;20033;-53
2023/06/09 09:55:58;;;;;;;12.55;8.60;;;;;;;;;;5030721;28;20480;-57
2023/06/09 09:58:29;;;;;;;10.82;8.80;;;;;;;;;;5041375;28;20393;-53
2023/06/09 10:00:57;;;;;;;9.65;7.55;;;;;;;;;;5028037;28;20387;-54
2023/06/09 10:03:22;;;;;;;10.10;8.33;;;;;;;;;;5026351;28;20149;-52
2023/06/09 10:05:49;;;;;;;12.13;8.23;;;;;;;;;;5022063;28;20785;-52
2023/06/09 10:08:26;;;;;;;9.35;7.53;;;;;;;;;;5034890;28;20038;-49
2023/06/09 10:10:53;;;;;;;7.88;6.53;;;;;;;;;;5024723;28;20487;-53
2023/06/09 10:13:19;;;;;;;9.18;7.40;;;;;;;;;;5020083;28;20049;-53
2023/06/09 10:15:44;;;;;;;11.00;8.20;;;;;;;;;;5021791;28;20049;-57
2023/06/09 10:18:11;;;;;;;8.27;7.22;;;;;;;;;;5031553;28;20509;-53
2023/06/09 10:20:36;;;;;;;11.60;7.68;;;;;;;;;;5024839;28;20052;-53
2023/06/09 10:23:02;;;;;;;8.90;6.63;;;;;;;;;;5026065;28;20588;-52
2023/06/09 10:25:28;;;;;;;6.68;5.70;;;;;;;;;;5025115;28;20312;-54
2023/06/09 10:27:53;;;;;;;6.50;5.35;;;;;;;;;;5025556;28;20028;-49
2023/06/09 10:30:20;;;;;;;6.75;4.97;;;;;;;;;;5024761;28;20045;-50
2023/06/09 10:32:49;;;;;;;7.30;5.85;;;;;;;;;;5025114;28;20083;-52
2023/06/09 10:35:16;;;;;;;5.53;4.72;;;;;;;;;;5026125;28;20419;-57
2023/06/09 10:37:42;;;;;;;5.88;4.78;;;;;;;;;;5036182;28;20475;-59
2023/06/09 10:40:25;;;;;;;5.75;5.13;;;;;;;;;;5039102;28;20043;-51
2023/06/09 10:42:51;;;;;;;6.40;5.47;;;;;;;;;;5041853;28;20033;-53
2023/06/09 10:45:17;;;;;;;6.97;5.63;;;;;;;;;;5030381;28;20022;-52
2023/06/09 10:47:46;;;;;;;5.72;5.13;;;;;;;;;;5036740;28;20657;-53
2023/06/09 10:50:31;;;;;;;6.57;5.03;;;;;;;;;;5022205;28;20037;-51
2023/06/09 10:52:57;;;;;;;7.55;4.75;;;;;;;;;;5011712;28;20450;-51
2023/06/09 10:55:24;;;;;;;9.02;6.15;;;;;;;;;;5012345;28;20274;-51
2023/06/09 10:57:50;;;;;;;7.18;5.32;;;;;;;;;;5012425;28;20029;-51
2023/06/09 11:00:15;;;;;;;6.65;5.60;;;;;;;;;;5004620;28;20025;-52
2023/06/09 11:02:47;;;;;;;7.63;6.30;;;;;;;;;;5007141;28;20679;-55
2023/06/09 11:05:12;;;;;;;6.85;5.57;;;;;;;;;;5002878;28;20026;-51
2023/06/09 11:07:46;;;;;;;6.57;5.40;;;;;;;;;;5008911;28;20029;-54
2023/06/09 11:10:12;;;;;;;5.60;5.00;;;;;;;;;;5008233;28;20030;-50
2023/06/09 11:12:37;;;;;;;6.70;5.50;;;;;;;;;;5011473;28;20033;-47
2023/06/09 11:15:03;;;;;;;8.00;4.83;;;;;;;;;;5007649;28;20362;-53
2023/06/09 11:17:36;;;;;;;6.90;5.50;;;;;;;;;;5008091;28;20813;-55
2023/06/09 11:20:08;;;;;;;6.35;5.00;;;;;;;;;;5007257;28;20034;-54
2023/06/09 11:22:33;;;;;;;5.50;4.57;;;;;;;;;;5008861;28;20027;-49
2023/06/09 11:24:59;;;;;;;6.10;5.00;;;;;;;;;;5015171;28;20622;-50
2023/06/09 11:27:24;;;;;;;7.07;5.27;;;;;;;;;;5005227;28;20013;-50
2023/06/09 11:30:08;;;;;;;6.10;5.25;;;;;;;;;;5016952;28;20275;-49
2023/06/09 11:32:53;;;;;;;5.10;4.55;;;;;;;;;;5017686;28;20495;-52
2023/06/09 11:35:27;;;;;;;4.70;4.30;;;;;;;;;;5023164;28;20029;-52
2023/06/09 11:37:53;;;;;;;4.88;4.40;;;;;;;;;;5030330;28;20080;-55
2023/06/09 11:40:19;;;;;;;6.00;4.68;;;;;;;;;;5010404;28;20029;-55
2023/06/09 11:42:45;;;;;;;7.45;5.00;;;;;;;;;;5012534;28;20026;-54
2023/06/09 11:45:11;;;;;;;5.57;4.20;;;;;;;;;;5008529;28;20057;-50
2023/06/09 11:47:39;;;;;;;6.32;4.07;;;;;;;;;;5015057;28;20071;-54
2023/06/09 11:50:05;;;;;;;7.18;5.10;;;;;;;;;;5004554;28;20030;-52
2023/06/09 11:52:31;;;;;;;6.10;4.68;;;;;;;;;;5004777;28;20029;-51
2023/06/09 11:54:57;;;;;;;5.65;4.80;;;;;;;;;;5038633;28;20503;-52
2023/06/09 11:57:22;;;;;;;19.27;7.50;;;;;;;;;;5014091;28;20056;-54
2023/06/09 11:59:47;;;;;;;8.95;5.45;;;;;;;;;;5018005;28;20266;-55
2023/06/09 12:02:15;;;;;;;9.38;5.63;;;;;;;;;;5011518;28;20017;-52
2023/06/09 12:04:41;;;;;;;5.22;4.00;;;;;;;;;;5022911;28;20025;-54
2023/06/09 12:07:09;;;;;;;4.47;3.78;;;;;;;;;;5037560;28;20031;-52
2023/06/09 12:09:35;;;;;;;5.45;4.20;;;;;;;;;;5015471;28;20088;-51
2023/06/09 12:12:00;;;;;;;3.90;3.50;;;;;;;;;;5008525;28;20063;-52
2023/06/09 12:14:25;;;;;;;5.27;4.77;;;;;;;;;;5014594;28;20036;-54
2023/06/09 12:16:51;;;;;;;5.30;3.93;;;;;;;;;;5013670;28;20319;-56
2023/06/09 12:19:17;;;;;;;3.83;3.42;;;;;;;;;;5009980;28;20269;-55
2023/06/09 12:21:45;;;;;;;6.10;4.15;;;;;;;;;;5005707;28;20456;-52
2023/06/09 12:24:11;;;;;;;4.53;3.92;;;;;;;;;;5010796;28;20045;-52
2023/06/09 12:26:37;;;;;;;3.88;3.53;;;;;;;;;;5020213;28;20464;-55
2023/06/09 12:29:03;;;;;;;6.50;3.95;;;;;;;;;;5022214;28;20083;-50
2023/06/09 12:31:28;;;;;;;4.78;3.95;;;;;;;;;;5029190;28;20308;-54
2023/06/09 12:33:56;;;;;;;6.07;3.97;;;;;;;;;;5042396;28;20285;-51
2023/06/09 12:36:22;;;;;;;4.43;3.85;;;;;;;;;;5029523;28;20056;-51
2023/06/09 12:38:48;;;;;;;4.32;3.92;;;;;;;;;;5009110;28;20101;-54
2023/06/09 12:41:16;;;;;;;5.00;3.85;;;;;;;;;;5014103;28;20033;-52
2023/06/09 12:43:45;;;;;;;3.95;3.55;;;;;;;;;;5008894;28;20056;-58
2023/06/09 12:46:12;;;;;;;3.95;3.42;;;;;;;;;;5008104;28;20493;-49
2023/06/09 12:48:56;;;;;;;4.05;3.65;;;;;;;;;;5018896;28;20016;-53
2023/06/09 12:51:21;;;;;;;7.60;3.65;;;;;;;;;;5041465;28;20055;-51
2023/06/09 12:53:47;;;;;;;3.60;3.30;;;;;;;;;;5020011;28;20033;-50
2023/06/09 12:56:12;;;;;;;4.05;3.65;;;;;;;;;;5011021;28;20017;-53
2023/06/09 12:58:38;;;;;;;6.23;3.97;;;;;;;;;;5013748;28;20033;-51
2023/06/09 13:01:03;;;;;;;4.10;3.70;;;;;;;;;;5015032;28;20335;-55
2023/06/09 13:03:28;;;;;;;5.07;3.70;;;;;;;;;;5010162;28;20267;-53
2023/06/09 13:05:54;;;;;;;4.63;3.77;;;;;;;;;;5011654;28;20098;-51
2023/06/09 13:08:19;;;;;;;5.67;3.90;;;;;;;;;;5017261;28;20765;-52
2023/06/09 13:10:45;;;;;;;5.03;4.20;;;;;;;;;;5017209;28;20266;-50
2023/06/09 13:13:10;;;;;;;5.90;3.83;;;;;;;;;;5020568;28;20048;-50
2023/06/09 13:15:35;;;;;;;8.07;4.20;;;;;;;;;;5008672;28;20496;-55
2023/06/09 13:18:01;;;;;;;4.13;3.63;;;;;;;;;;5010482;28;20290;-53
2023/06/09 13:20:26;;;;;;;10.25;4.55;;;;;;;;;;5016372;28;20702;-55
2023/06/09 13:22:52;;;;;;;5.20;4.13;;;;;;;;;;5013013;28;20065;-53
2023/06/09 13:25:17;;;;;;;4.43;4.03;;;;;;;;;;5011382;28;20041;-56
2023/06/09 13:27:44;;;;;;;4.78;4.22;;;;;;;;;;5013880;28;20049;-55
2023/06/09 13:30:11;;;;;;;4.75;4.22;;;;;;;;;;5013679;28;20033;-54
2023/06/09 13:32:36;;;;;;;5.05;4.03;;;;;;;;;;5014240;28;20063;-53
2023/06/09 13:35:02;;;;;;;4.75;4.32;;;;;;;;;;5016130;28;20030;-53
2023/06/09 13:37:27;;;;;;;8.00;5.00;;;;;;;;;;5012540;28;20045;-57
2023/06/09 13:39:53;;;;;;;3.88;3.45;;;;;;;;;;5020049;28;20400;-50
2023/06/09 13:42:18;;;;;;;7.77;4.17;;;;;;;;;;5021463;28;20416;-52
2023/06/09 13:44:43;;;;;;;5.80;5.13;;;;;;;;;;5021469;28;20279;-58
2023/06/09 13:47:09;;;;;;;5.73;4.50;;;;;;;;;;5021464;28;20250;-56
2023/06/09 13:49:34;;;;;;;4.82;4.15;;;;;;;;;;5020924;28;20357;-52
2023/06/09 13:51:59;;;;;;;6.97;4.30;;;;;;;;;;5021663;28;20034;-54
2023/06/09 13:54:25;;;;;;;6.70;4.37;;;;;;;;;;5021010;28;20711;-53
2023/06/09 13:56:50;;;;;;;7.35;4.55;;;;;;;;;;5021410;28;20246;-51
2023/06/09 13:59:15;;;;;;;5.72;4.65;;;;;;;;;;5021088;28;20026;-57
2023/06/09 14:01:43;;;;;;;9.35;4.28;;;;;;;;;;5021333;28;20029;-52
2023/06/09 14:04:08;;;;;;;10.32;4.22;;;;;;;;;;5021454;28;20032;-53
2023/06/09 14:06:33;;;;;;;5.38;4.07;;;;;;;;;;5021177;28;20021;-53
2023/06/09 14:08:59;;;;;;;7.03;4.23;;;;;;;;;;5021260;28;20478;-58
2023/06/09 14:11:24;;;;;;;7.13;3.92;;;;;;;;;;5020927;28;20266;-52
2023/06/09 14:13:50;;;;;;;4.50;3.28;;;;;;;;;;5021252;28;20065;-54
2023/06/09 14:16:15;;;;;;;3.42;3.13;;;;;;;;;;5021402;28;20424;-54
2023/06/09 14:18:41;;;;;;;4.10;3.67;;;;;;;;;;5021681;28;20032;-51
2023/06/09 14:21:06;;;;;;;3.72;3.08;;;;;;;;;;5021442;28;20382;-56
2023/06/09 14:23:32;;;;;;;4.53;3.15;;;;;;;;;;5019870;28;20133;-53